createdAt,value
2023-03-05T00:01:07.263Z,99.90
2023-03-05T00:03:33.923Z,99.90
2023-03-05T00:06:00.549Z,99.90
2023-03-05T00:08:28.872Z,99.90
2023-03-05T00:11:07.589Z,99.90
2023-03-05T00:13:35.677Z,99.90
2023-03-05T00:16:08.101Z,99.90
2023-03-05T00:18:35.229Z,99.90
2023-03-05T00:21:03.176Z,99.90
2023-03-05T00:23:29.912Z,99.90
2023-03-05T00:25:56.495Z,99.90
2023-03-05T00:28:23.092Z,99.90
2023-03-05T00:30:49.681Z,99.90
2023-03-05T00:33:16.369Z,99.90
2023-03-05T00:35:44.754Z,99.90
2023-03-05T00:38:12.555Z,99.90
2023-03-05T00:40:41.174Z,99.90
2023-03-05T00:43:08.292Z,99.90
2023-03-05T00:45:35.195Z,99.90
2023-03-05T00:48:02.525Z,99.90
2023-03-05T00:50:29.133Z,99.90
2023-03-05T00:52:55.857Z,99.90
2023-03-05T00:55:22.445Z,99.90
2023-03-05T00:57:49.108Z,99.90
2023-03-05T01:00:16.777Z,99.90
2023-03-05T01:02:43.427Z,99.90
2023-03-05T01:05:13.148Z,99.90
2023-03-05T01:07:40.328Z,99.90
2023-03-05T01:10:08.159Z,99.90
2023-03-05T01:12:34.958Z,99.90
2023-03-05T01:15:01.697Z,99.90
2023-03-05T01:17:28.327Z,99.90
2023-03-05T01:19:55.223Z,99.90
2023-03-05T01:22:21.772Z,99.90
2023-03-05T01:24:48.355Z,99.90
2023-03-05T01:27:14.982Z,99.90
2023-03-05T01:29:41.576Z,99.90
2023-03-05T01:32:08.221Z,99.90
2023-03-05T01:34:37.386Z,99.90
2023-03-05T01:37:06.117Z,99.90
2023-03-05T01:39:32.721Z,99.90
2023-03-05T01:41:59.559Z,99.90
2023-03-05T01:44:29.019Z,99.90
2023-03-05T01:46:57.968Z,99.90
2023-03-05T01:49:30.515Z,99.90
2023-03-05T01:52:13.913Z,99.90
2023-03-05T01:54:50.572Z,99.90
2023-03-05T01:57:26.630Z,99.90
2023-03-05T02:00:00.832Z,99.90
2023-03-05T02:02:27.466Z,99.90
2023-03-05T02:05:31.010Z,99.90
2023-03-05T02:07:59.655Z,99.90
2023-03-05T02:10:33.304Z,99.90
2023-03-05T02:13:03.985Z,99.90
2023-03-05T02:15:32.234Z,99.90
2023-03-05T02:18:01.244Z,99.90
2023-03-05T02:20:30.485Z,99.90
2023-03-05T02:22:57.302Z,99.90
2023-03-05T02:25:27.422Z,99.90
2023-03-05T02:28:17.938Z,99.90
2023-03-05T02:30:44.646Z,99.90
2023-03-05T02:33:12.958Z,99.90
2023-03-05T02:35:39.536Z,99.90
2023-03-05T02:38:06.155Z,99.90
2023-03-05T02:40:32.898Z,99.90
2023-03-05T02:42:59.494Z,99.90
2023-03-05T02:45:26.141Z,99.90
2023-03-05T02:47:52.755Z,99.90
2023-03-05T02:50:19.476Z,99.90
2023-03-05T02:52:46.262Z,99.90
2023-03-05T02:55:13.164Z,99.90
2023-03-05T02:57:39.781Z,99.90
2023-03-05T03:00:07.371Z,99.90
2023-03-05T03:02:34.161Z,99.90
2023-03-05T03:05:00.750Z,99.90
2023-03-05T03:07:27.415Z,99.90
2023-03-05T03:09:54.029Z,99.90
2023-03-05T03:12:20.606Z,99.90
2023-03-05T03:14:47.180Z,99.90
2023-03-05T03:17:16.268Z,99.90
2023-03-05T03:19:44.150Z,99.90
2023-03-05T03:22:12.015Z,99.90
2023-03-05T03:24:39.408Z,99.90
2023-03-05T03:27:06.468Z,99.90
2023-03-05T03:29:33.576Z,99.90
2023-03-05T03:32:00.219Z,99.90
2023-03-05T03:34:27.300Z,99.90
2023-03-05T03:36:54.477Z,99.90
2023-03-05T03:39:21.665Z,99.90
2023-03-05T03:41:50.976Z,99.90
2023-03-05T03:44:19.194Z,99.90
2023-03-05T03:46:47.332Z,99.90
2023-03-05T03:49:20.443Z,99.90
2023-03-05T03:51:48.543Z,99.90
2023-03-05T03:54:16.666Z,99.90
2023-03-05T03:56:43.730Z,99.90
2023-03-05T03:59:10.369Z,99.90
2023-03-05T04:01:37.406Z,99.90
2023-03-05T04:04:05.216Z,99.90
2023-03-05T04:06:32.495Z,99.90
2023-03-05T04:08:59.476Z,99.90
2023-03-05T04:11:26.330Z,99.90
2023-03-05T04:13:52.886Z,99.90
2023-03-05T04:16:19.669Z,99.90
2023-03-05T04:18:46.593Z,99.90
2023-03-05T04:21:13.273Z,99.90
2023-03-05T04:23:40.097Z,99.90
2023-03-05T04:26:06.721Z,99.90
2023-03-05T04:28:33.577Z,99.90
2023-03-05T04:31:00.232Z,99.90
2023-03-05T04:33:26.983Z,99.90
2023-03-05T04:35:53.611Z,99.90
2023-03-05T04:38:20.259Z,99.90
2023-03-05T04:40:47.189Z,99.90
2023-03-05T04:43:14.016Z,99.90
2023-03-05T04:45:42.201Z,99.90
2023-03-05T04:48:10.318Z,99.90
2023-03-05T04:50:37.267Z,99.90
2023-03-05T04:53:04.490Z,99.90
2023-03-05T04:55:31.156Z,99.90
2023-03-05T04:57:57.983Z,99.90
2023-03-05T05:00:24.825Z,99.90
2023-03-05T05:02:52.079Z,99.90
2023-03-05T05:05:21.884Z,99.90
2023-03-05T05:07:48.665Z,99.90
2023-03-05T05:10:16.077Z,99.90
2023-03-05T05:12:43.122Z,99.90
2023-03-05T05:15:11.627Z,99.90
2023-03-05T05:17:38.463Z,99.90
2023-03-05T05:20:06.662Z,99.90
2023-03-05T05:22:34.481Z,99.90
2023-03-05T05:25:01.167Z,99.90
2023-03-05T05:27:27.851Z,99.90
2023-03-05T05:29:54.435Z,99.90
2023-03-05T05:32:22.674Z,99.90
2023-03-05T05:34:49.561Z,99.90
2023-03-05T05:37:16.210Z,99.90
2023-03-05T05:39:42.810Z,99.90
2023-03-05T05:42:11.501Z,99.90
2023-03-05T05:44:38.126Z,99.90
2023-03-05T05:47:04.755Z,99.90
2023-03-05T05:49:31.732Z,99.90
2023-03-05T05:51:59.062Z,99.90
2023-03-05T05:54:25.678Z,99.90
2023-03-05T05:56:52.262Z,99.90
2023-03-05T05:59:18.902Z,99.90
2023-03-05T06:01:45.512Z,99.90
2023-03-05T06:04:12.241Z,99.90
2023-03-05T06:06:38.826Z,99.90
2023-03-05T06:09:05.542Z,99.90
2023-03-05T06:11:32.300Z,99.90
2023-03-05T06:13:58.938Z,99.90
2023-03-05T06:16:25.625Z,99.90
2023-03-05T06:18:53.253Z,99.90
2023-03-05T06:21:21.889Z,99.90
2023-03-05T06:23:49.422Z,99.90
2023-03-05T06:26:19.849Z,99.90
2023-03-05T06:28:46.543Z,99.90
2023-03-05T06:31:16.187Z,99.90
2023-03-05T06:33:44.064Z,99.90
2023-03-05T06:36:12.921Z,99.90
2023-03-05T06:38:40.397Z,99.90
2023-03-05T06:41:11.538Z,99.90
2023-03-05T06:43:40.906Z,99.90
2023-03-05T06:46:12.889Z,99.90
2023-03-05T06:48:39.881Z,99.90
2023-03-05T06:51:20.811Z,99.90
2023-03-05T06:53:49.453Z,99.90
2023-03-05T06:56:16.933Z,99.90
2023-03-05T06:58:45.944Z,99.90
2023-03-05T07:01:15.618Z,99.90
2023-03-05T07:03:42.844Z,99.90
2023-03-05T07:06:15.814Z,99.90
2023-03-05T07:08:44.585Z,99.90
2023-03-05T07:11:15.414Z,99.90
2023-03-05T07:13:43.368Z,99.90
2023-03-05T07:16:14.045Z,99.90
2023-03-05T07:18:43.597Z,99.90
2023-03-05T07:21:14.749Z,99.90
2023-03-05T07:23:41.345Z,99.90
2023-03-05T07:26:07.919Z,99.90
2023-03-05T07:28:35.194Z,99.90
2023-03-05T07:31:07.987Z,99.90
2023-03-05T07:33:37.015Z,99.90
2023-03-05T07:36:05.046Z,99.90
2023-03-05T07:38:32.156Z,99.90
2023-03-05T07:41:03.489Z,99.90
2023-03-05T07:43:30.145Z,99.90
2023-03-05T07:45:56.834Z,99.90
2023-03-05T07:48:23.934Z,99.90
2023-03-05T07:50:50.832Z,99.90
2023-03-05T07:53:17.477Z,99.90
2023-03-05T07:55:45.218Z,99.90
2023-03-05T07:58:13.782Z,99.90
2023-03-05T08:00:40.919Z,99.90
2023-03-05T08:03:07.689Z,99.90
2023-03-05T08:05:34.644Z,99.90
2023-03-05T08:08:01.203Z,99.90
2023-03-05T08:10:27.914Z,99.90
2023-03-05T08:12:54.477Z,99.90
2023-03-05T08:15:21.251Z,99.90
2023-03-05T08:17:47.841Z,99.90
2023-03-05T08:20:14.533Z,99.90
2023-03-05T08:22:41.126Z,99.90
2023-03-05T08:25:08.672Z,99.90
2023-03-05T08:27:40.567Z,99.90
2023-03-05T08:30:09.202Z,99.90
2023-03-05T08:32:35.806Z,99.90
2023-03-05T08:35:04.563Z,99.90
2023-03-05T08:37:31.538Z,99.90
2023-03-05T08:39:58.572Z,99.90
2023-03-05T08:42:25.313Z,99.90
2023-03-05T08:44:51.960Z,99.90
2023-03-05T08:47:19.171Z,99.90
2023-03-05T08:49:46.185Z,99.90
2023-03-05T08:52:12.889Z,99.90
2023-03-05T08:54:39.476Z,99.90
2023-03-05T08:57:06.070Z,99.90
2023-03-05T08:59:32.670Z,99.90
2023-03-05T09:02:02.660Z,99.90
2023-03-05T09:04:29.243Z,99.90
2023-03-05T09:06:57.521Z,99.90
2023-03-05T09:09:24.692Z,99.90
2023-03-05T09:11:52.180Z,99.90
2023-03-05T09:14:18.887Z,99.90
2023-03-05T09:16:45.613Z,99.90
2023-03-05T09:19:14.893Z,99.90
2023-03-05T09:21:41.797Z,99.90
2023-03-05T09:24:08.965Z,99.90
2023-03-05T09:26:35.753Z,99.90
2023-03-05T09:29:02.445Z,99.90
2023-03-05T09:31:29.617Z,99.90
2023-03-05T09:33:56.210Z,99.90
2023-03-05T09:36:26.258Z,99.90
2023-03-05T09:38:56.348Z,99.90
2023-03-05T09:41:54.664Z,99.90
2023-03-05T09:44:58.980Z,99.90
2023-03-05T09:47:46.093Z,99.90
2023-03-05T09:50:34.253Z,99.90
2023-03-05T09:53:20.707Z,99.90
2023-03-05T09:55:51.428Z,99.90
2023-03-05T09:58:49.486Z,99.90
2023-03-05T10:01:29.150Z,99.90
2023-03-05T10:04:02.523Z,99.90
2023-03-05T10:07:12.395Z,99.90
2023-03-05T10:10:00.367Z,99.90
2023-03-05T10:12:46.266Z,99.90
2023-03-05T10:15:14.271Z,99.90
2023-03-05T10:18:14.109Z,99.90
2023-03-05T10:20:46.706Z,99.90
2023-03-05T10:23:33.628Z,99.90
2023-03-05T10:26:15.014Z,99.90
2023-03-05T10:28:50.237Z,99.90
2023-03-05T10:31:41.821Z,99.90
2023-03-05T10:34:08.517Z,99.90
2023-03-05T10:36:50.196Z,99.90
2023-03-05T10:39:31.875Z,99.90
2023-03-05T10:42:35.211Z,99.90
2023-03-05T10:45:21.290Z,99.90
2023-03-05T10:47:51.188Z,99.90
2023-03-05T10:50:33.500Z,99.90
2023-03-05T10:53:18.355Z,99.90
2023-03-05T10:55:45.078Z,99.80
2023-03-05T10:58:16.882Z,99.50
2023-03-05T11:01:04.534Z,99.90
2023-03-05T11:04:06.103Z,99.90
2023-03-05T11:06:36.243Z,99.90
2023-03-05T11:09:32.231Z,99.90
2023-03-05T11:12:04.681Z,99.60
2023-03-05T11:14:35.772Z,99.90
2023-03-05T11:17:22.577Z,99.90
2023-03-05T11:19:49.291Z,99.90
2023-03-05T11:22:24.536Z,99.90
2023-03-05T11:25:14.274Z,99.90
2023-03-05T11:27:54.594Z,99.90
2023-03-05T11:30:33.917Z,99.90
2023-03-05T11:33:19.299Z,99.90
2023-03-05T11:35:47.715Z,99.90
2023-03-05T11:38:27.906Z,99.90
2023-03-05T11:40:56.535Z,99.90
2023-03-05T11:43:25.151Z,99.90
2023-03-05T11:46:05.325Z,99.90
2023-03-05T11:48:39.935Z,99.90
2023-03-05T11:51:15.732Z,99.90
2023-03-05T11:53:44.413Z,99.90
2023-03-05T11:56:31.537Z,99.90
2023-03-05T11:59:14.716Z,99.90
2023-03-05T12:01:49.027Z,99.90
2023-03-05T12:04:16.825Z,99.90
2023-03-05T12:06:48.224Z,99.90
2023-03-05T12:09:27.066Z,99.90
2023-03-05T12:12:21.298Z,99.90
2023-03-05T12:14:53.719Z,99.90
2023-03-05T12:17:35.987Z,99.00
2023-03-05T12:20:12.561Z,97.10
2023-03-05T12:22:41.330Z,94.90
2023-03-05T12:25:32.155Z,91.30
2023-03-05T12:28:00.164Z,90.70
2023-03-05T12:30:49.795Z,87.60
2023-03-05T12:33:32.995Z,85.40
2023-03-05T12:36:18.359Z,90.10
2023-03-05T12:38:56.172Z,86.10
2023-03-05T12:41:22.690Z,82.20
2023-03-05T12:44:07.613Z,76.60
2023-03-05T12:46:43.135Z,80.10
2023-03-05T12:49:26.931Z,78.10
2023-03-05T12:51:55.978Z,79.10
2023-03-05T12:54:39.751Z,74.30
2023-03-05T12:57:24.352Z,72.70
2023-03-05T13:00:21.429Z,71.40
2023-03-05T13:02:55.758Z,74.90
2023-03-05T13:05:39.083Z,74.50
2023-03-05T13:08:25.803Z,78.30
2023-03-05T13:10:58.685Z,75.10
2023-03-05T13:13:28.342Z,75.50
2023-03-05T13:15:56.731Z,76.90
2023-03-05T13:18:30.130Z,80.10
2023-03-05T13:21:04.635Z,75.50
2023-03-05T13:23:32.806Z,71.60
2023-03-05T13:26:18.572Z,73.40
2023-03-05T13:29:05.093Z,75.30
2023-03-05T13:31:31.812Z,82.50
2023-03-05T13:34:19.048Z,80.50
2023-03-05T13:36:52.082Z,77.00
2023-03-05T13:39:21.843Z,78.50
2023-03-05T13:42:00.887Z,80.10
2023-03-05T13:44:29.422Z,78.70
2023-03-05T13:47:08.603Z,82.30
2023-03-05T13:49:35.583Z,80.00
2023-03-05T13:52:02.848Z,80.80
2023-03-05T13:54:30.204Z,82.60
2023-03-05T13:56:56.774Z,84.60
2023-03-05T13:59:33.835Z,84.60
2023-03-05T14:02:14.664Z,83.00
2023-03-05T14:04:46.092Z,83.20
2023-03-05T14:07:26.984Z,84.70
2023-03-05T14:09:54.091Z,83.80
2023-03-05T14:12:42.463Z,88.50
2023-03-05T14:15:24.247Z,89.60
2023-03-05T14:17:50.895Z,90.10
2023-03-05T14:20:23.215Z,90.60
2023-03-05T14:22:53.649Z,91.20
2023-03-05T14:25:39.420Z,88.30
2023-03-05T14:28:22.092Z,86.20
2023-03-05T14:30:52.324Z,89.20
2023-03-05T14:33:29.374Z,85.90
2023-03-05T14:35:58.208Z,80.40
2023-03-05T14:38:29.547Z,78.80
2023-03-05T14:40:56.368Z,78.00
2023-03-05T14:43:23.656Z,82.00
2023-03-05T14:45:50.265Z,83.20
2023-03-05T14:48:18.959Z,83.40
2023-03-05T14:50:56.827Z,83.90
2023-03-05T14:53:30.631Z,83.20
2023-03-05T14:55:57.366Z,84.20
2023-03-05T14:58:27.458Z,89.40
2023-03-05T15:00:55.350Z,90.10
2023-03-05T15:03:22.961Z,90.10
2023-03-05T15:05:55.074Z,90.40
2023-03-05T15:08:28.182Z,91.10
2023-03-05T15:10:55.452Z,90.70
2023-03-05T15:13:22.176Z,91.80
2023-03-05T15:15:53.007Z,91.70
2023-03-05T15:18:21.557Z,91.60
2023-03-05T15:20:49.308Z,92.40
2023-03-05T15:23:16.089Z,92.60
2023-03-05T15:25:42.900Z,92.50
2023-03-05T15:28:09.872Z,92.90
2023-03-05T15:30:39.891Z,92.80
2023-03-05T15:33:12.644Z,94.00
2023-03-05T15:35:40.078Z,94.70
2023-03-05T15:38:06.836Z,95.40
2023-03-05T15:40:33.965Z,96.10
2023-03-05T15:43:00.867Z,96.70
2023-03-05T15:45:28.042Z,97.90
2023-03-05T15:47:54.632Z,98.20
2023-03-05T15:50:21.993Z,98.50
2023-03-05T15:52:50.343Z,98.30
2023-03-05T15:55:18.348Z,98.30
2023-03-05T15:57:48.155Z,97.90
2023-03-05T16:00:18.789Z,97.40
2023-03-05T16:02:45.323Z,97.80
2023-03-05T16:05:11.870Z,98.10
2023-03-05T16:07:40.618Z,98.20
2023-03-05T16:10:10.424Z,98.50
2023-03-05T16:12:40.804Z,98.40
2023-03-05T16:15:10.192Z,98.30
2023-03-05T16:17:38.627Z,98.40
2023-03-05T16:20:06.087Z,98.50
2023-03-05T16:22:32.959Z,98.00
2023-03-05T16:25:02.621Z,98.20
2023-03-05T16:27:29.724Z,98.30
2023-03-05T16:29:57.556Z,98.70
2023-03-05T16:32:24.977Z,99.00
2023-03-05T16:34:51.690Z,99.00
2023-03-05T16:37:22.511Z,99.70
2023-03-05T16:39:49.346Z,99.20
2023-03-05T16:42:16.541Z,99.40
2023-03-05T16:44:43.720Z,99.40
2023-03-05T16:47:12.171Z,99.40
2023-03-05T16:49:39.718Z,99.70
2023-03-05T16:52:18.222Z,99.80
2023-03-05T16:54:46.342Z,99.90
2023-03-05T16:57:13.256Z,99.90
2023-03-05T16:59:40.646Z,99.90
2023-03-05T17:02:07.841Z,99.90
2023-03-05T17:04:34.603Z,99.90
2023-03-05T17:07:03.363Z,99.90
2023-03-05T17:09:30.436Z,99.90
2023-03-05T17:11:57.013Z,99.90
2023-03-05T17:14:26.723Z,99.90
2023-03-05T17:16:53.482Z,99.90
2023-03-05T17:19:20.063Z,99.90
2023-03-05T17:21:50.525Z,98.90
2023-03-05T17:24:17.365Z,98.90
2023-03-05T17:26:46.549Z,99.30
2023-03-05T17:29:13.211Z,99.20
2023-03-05T17:31:40.094Z,98.90
2023-03-05T17:34:06.760Z,99.20
2023-03-05T17:36:33.394Z,98.60
2023-03-05T17:39:00.053Z,98.60
2023-03-05T17:41:26.752Z,98.50
2023-03-05T17:43:53.334Z,98.30
2023-03-05T17:46:19.901Z,98.60
2023-03-05T17:48:46.541Z,98.70
2023-03-05T17:51:16.509Z,98.60
2023-03-05T17:53:43.901Z,98.90
2023-03-05T17:56:12.292Z,98.80
2023-03-05T17:58:39.522Z,99.00
2023-03-05T18:01:07.563Z,99.50
2023-03-05T18:03:34.691Z,99.50
2023-03-05T18:06:01.268Z,99.60
2023-03-05T18:08:28.053Z,99.70
2023-03-05T18:10:55.119Z,99.90
2023-03-05T18:13:21.712Z,99.90
2023-03-05T18:15:48.289Z,99.90
2023-03-05T18:18:16.093Z,99.90
2023-03-05T18:20:43.258Z,99.90
2023-03-05T18:23:10.458Z,99.90
2023-03-05T18:25:37.123Z,99.90
2023-03-05T18:28:14.565Z,99.90
2023-03-05T18:30:42.419Z,99.90
2023-03-05T18:33:24.325Z,99.90
2023-03-05T18:35:52.235Z,99.90
2023-03-05T18:38:21.124Z,99.90
2023-03-05T18:40:50.987Z,99.90
2023-03-05T18:43:20.402Z,99.90
2023-03-05T18:45:52.699Z,99.90
2023-03-05T18:48:20.316Z,99.90
2023-03-05T18:50:50.334Z,99.90
2023-03-05T18:53:17.311Z,99.90
2023-03-05T18:55:44.765Z,99.90
2023-03-05T18:58:15.580Z,99.90
2023-03-05T19:00:44.700Z,99.90
2023-03-05T19:03:12.071Z,99.90
2023-03-05T19:05:39.801Z,99.90
2023-03-05T19:08:07.760Z,99.90
2023-03-05T19:10:34.661Z,99.90
2023-03-05T19:13:25.622Z,99.90
2023-03-05T19:15:52.343Z,99.90
2023-03-05T19:18:20.549Z,99.90
2023-03-05T19:20:55.216Z,99.90
2023-03-05T19:23:22.448Z,99.90
2023-03-05T19:25:49.040Z,99.90
2023-03-05T19:28:15.781Z,99.90
2023-03-05T19:30:42.442Z,99.90
2023-03-05T19:33:09.137Z,99.90
2023-03-05T19:35:35.750Z,99.90
2023-03-05T19:38:11.555Z,99.90
2023-03-05T19:40:41.250Z,99.90
2023-03-05T19:43:08.012Z,99.90
2023-03-05T19:45:34.971Z,99.90
2023-03-05T19:48:02.091Z,99.90
2023-03-05T19:50:28.712Z,99.90
2023-03-05T19:52:55.336Z,99.90
2023-03-05T19:55:21.929Z,99.90
2023-03-05T19:57:48.585Z,99.90
2023-03-05T20:00:15.671Z,99.90
2023-03-05T20:02:42.320Z,99.90
2023-03-05T20:05:09.568Z,99.90
2023-03-05T20:07:36.190Z,99.90
2023-03-05T20:10:02.832Z,99.90
2023-03-05T20:12:30.481Z,99.90
2023-03-05T20:14:57.195Z,99.90
2023-03-05T20:17:23.738Z,99.90
2023-03-05T20:19:50.318Z,99.90
2023-03-05T20:22:19.140Z,99.90
2023-03-05T20:24:46.360Z,99.90
2023-03-05T20:27:13.207Z,99.90
2023-03-05T20:29:39.796Z,99.90
2023-03-05T20:32:06.403Z,99.90
2023-03-05T20:34:33.098Z,99.90
2023-03-05T20:36:59.676Z,99.90
2023-03-05T20:39:26.366Z,99.90
2023-03-05T20:41:53.044Z,99.90
2023-03-05T20:44:19.773Z,99.90
2023-03-05T20:46:59.473Z,99.90
2023-03-05T20:49:26.130Z,99.90
2023-03-05T20:51:52.746Z,99.90
2023-03-05T20:54:20.190Z,99.90
2023-03-05T20:56:47.637Z,99.90
2023-03-05T20:59:14.271Z,99.90
2023-03-05T21:01:41.012Z,99.90
2023-03-05T21:04:08.120Z,99.90
2023-03-05T21:06:35.471Z,99.90
2023-03-05T21:09:02.747Z,99.90
2023-03-05T21:11:29.389Z,99.90
2023-03-05T21:13:56.046Z,99.90
2023-03-05T21:16:25.158Z,99.90
2023-03-05T21:18:52.128Z,99.90
2023-03-05T21:21:19.295Z,99.90
2023-03-05T21:23:46.924Z,99.90
2023-03-05T21:26:13.775Z,99.90
2023-03-05T21:28:40.971Z,99.90
2023-03-05T21:31:10.675Z,99.90
2023-03-05T21:33:37.460Z,99.90
2023-03-05T21:36:04.998Z,99.90
2023-03-05T21:38:33.819Z,99.90
2023-03-05T21:41:01.066Z,99.90
2023-03-05T21:43:28.450Z,99.90
2023-03-05T21:45:56.939Z,99.90
2023-03-05T21:48:25.060Z,99.90
2023-03-05T21:50:52.616Z,99.90
2023-03-05T21:53:19.576Z,99.90
2023-03-05T21:55:56.730Z,99.90
2023-03-05T21:58:23.272Z,99.90
2023-03-05T22:00:50.013Z,99.90
2023-03-05T22:03:16.688Z,99.90
2023-03-05T22:05:44.250Z,99.90
2023-03-05T22:08:10.895Z,99.90
2023-03-05T22:10:39.444Z,99.90
2023-03-05T22:13:10.196Z,99.90
2023-03-05T22:15:52.092Z,99.90
2023-03-05T22:18:24.192Z,99.90
2023-03-05T22:20:51.855Z,99.90
2023-03-05T22:23:19.737Z,99.90
2023-03-05T22:25:46.512Z,99.90
2023-03-05T22:28:13.511Z,99.90
2023-03-05T22:30:44.359Z,99.90
2023-03-05T22:33:13.641Z,99.90
2023-03-05T22:35:41.595Z,99.90
2023-03-05T22:38:09.319Z,99.90
2023-03-05T22:40:37.568Z,99.90
2023-03-05T22:43:04.595Z,99.90
2023-03-05T22:45:32.222Z,99.90
2023-03-05T22:47:58.932Z,99.90
2023-03-05T22:50:25.514Z,99.90
2023-03-05T22:52:53.386Z,99.90
2023-03-05T22:55:20.078Z,99.90
2023-03-05T22:57:46.721Z,99.90
2023-03-05T23:00:23.273Z,99.90
2023-03-05T23:02:50.975Z,99.90
2023-03-05T23:05:18.201Z,99.90
2023-03-05T23:07:45.945Z,99.90
2023-03-05T23:10:23.902Z,99.90
2023-03-05T23:12:53.383Z,99.90
2023-03-05T23:15:26.333Z,99.90
2023-03-05T23:17:53.406Z,99.90
2023-03-05T23:20:22.813Z,99.90
2023-03-05T23:22:52.857Z,99.90
2023-03-05T23:25:22.880Z,99.90
2023-03-05T23:27:50.529Z,99.90
2023-03-05T23:30:21.072Z,99.90
2023-03-05T23:32:50.421Z,99.90
2023-03-05T23:35:26.839Z,99.90
2023-03-05T23:37:55.041Z,99.90
2023-03-05T23:40:24.355Z,99.90
2023-03-05T23:42:51.742Z,99.90
2023-03-05T23:45:19.729Z,99.90
2023-03-05T23:47:48.275Z,99.90
2023-03-05T23:50:19.303Z,99.90
2023-03-05T23:52:46.063Z,99.90
2023-03-05T23:55:20.999Z,99.90
2023-03-05T23:57:47.990Z,99.90
